This is the latest recevied weather packets stored in our database for station/object HS2GJW-1. If no packets are shown the sender has not sent any weather packets the latest 10 day(s).
| Time | Temp. | Humidity | Pressure | Rain* | Wind** | Luminosity | Snow |
|---|---|---|---|---|---|---|---|
| 1777507061 | 30.56° C | 99% | 1010 hPa | - | - | 0 W/m² | - |
| 1777506433 | 30.56° C | 99% | 1010 hPa | - | - | 0 W/m² | - |
| 1777505804 | 30° C | 99% | 1010 hPa | - | - | 0 W/m² | - |
| 1777465172 | 35° C | 68% | 1007 hPa | - | - | 0 W/m² | - |
| 1777464549 | 35° C | 68% | 1007 hPa | - | - | 0 W/m² | - |
| 1777463925 | 35° C | 67% | 1007 hPa | - | - | 0 W/m² | - |
| 1777463301 | 34.44° C | 71% | 1007 hPa | - | - | 0 W/m² | - |
| 1777462677 | 35° C | 67% | 1007 hPa | - | - | 0 W/m² | - |
| 1777462053 | 35° C | 67% | 1007 hPa | - | - | 0 W/m² | - |
| 1777461429 | 35.56° C | 64% | 1007 hPa | - | - | 0 W/m² | - |
| 1777460805 | 35.56° C | 66% | 1007 hPa | - | - | 0 W/m² | - |
| 1777460181 | 35.56° C | 63% | 1006 hPa | - | - | 0 W/m² | - |
| 1777459557 | 35.56° C | 64% | 1006 hPa | - | - | 0 W/m² | - |
| 1777458933 | 36.11° C | 62% | 1006 hPa | - | - | 0 W/m² | - |
| 1777458309 | 36.11° C | 60% | 1006 hPa | - | - | 0 W/m² | - |
| 1777457685 | 36.11° C | 60% | 1006 hPa | - | - | 0 W/m² | - |
| 1777457061 | 36.11° C | 60% | 1006 hPa | - | - | 0 W/m² | - |
| 1777456438 | 36.11° C | 59% | 1006 hPa | - | - | 0 W/m² | - |
| 1777455814 | 35.56° C | 63% | 1006 hPa | - | - | 0 W/m² | - |
| 1777455190 | 35.56° C | 63% | 1006 hPa | - | - | 0 W/m² | - |
| 1777454566 | 35° C | 65% | 1006 hPa | - | - | 0 W/m² | - |
| 1777423440 | 32.22° C | 93% | 1010 hPa | - | - | 0 W/m² | - |
| 1777422816 | 31.67° C | 95% | 1010 hPa | - | - | 0 W/m² | - |
| 1777422192 | 31.67° C | 98% | 1010 hPa | - | - | 0 W/m² | - |
| 1777421568 | 31.11° C | 98% | 1009 hPa | - | - | 0 W/m² | - |
* Rain since midnight (hover to see other rain measurements)
** Current wind speed in m/s (hover to see current wind gust speed)